sensor_id;sensor_type;location;lat;lon;timestamp;P1;durP1;ratioP1;P2;durP2;ratioP2
10335;SDS011;5213;53.548;9.930;2023-08-20T00:01:27;22.38;;;11.15;;
10335;SDS011;5213;53.548;9.930;2023-08-20T00:03:53;20.25;;;11.18;;
10335;SDS011;5213;53.548;9.930;2023-08-20T00:06:20;19.75;;;10.43;;
10335;SDS011;5213;53.548;9.930;2023-08-20T00:08:46;18.05;;;10.63;;
10335;SDS011;5213;53.548;9.930;2023-08-20T00:11:12;19.85;;;10.77;;
10335;SDS011;5213;53.548;9.930;2023-08-20T00:13:38;19.33;;;11.07;;
10335;SDS011;5213;53.548;9.930;2023-08-20T00:16:04;19.73;;;10.45;;
10335;SDS011;5213;53.548;9.930;2023-08-20T00:18:30;18.10;;;9.90;;
10335;SDS011;5213;53.548;9.930;2023-08-20T00:20:56;24.17;;;11.57;;
10335;SDS011;5213;53.548;9.930;2023-08-20T00:23:23;21.52;;;11.13;;
10335;SDS011;5213;53.548;9.930;2023-08-20T00:25:48;21.60;;;10.30;;
10335;SDS011;5213;53.548;9.930;2023-08-20T00:28:14;23.58;;;11.45;;
10335;SDS011;5213;53.548;9.930;2023-08-20T00:30:40;23.30;;;11.23;;
10335;SDS011;5213;53.548;9.930;2023-08-20T00:33:05;24.27;;;11.75;;
10335;SDS011;5213;53.548;9.930;2023-08-20T00:35:31;24.17;;;12.15;;
10335;SDS011;5213;53.548;9.930;2023-08-20T00:37:57;21.70;;;12.45;;
10335;SDS011;5213;53.548;9.930;2023-08-20T00:40:23;24.08;;;13.02;;
10335;SDS011;5213;53.548;9.930;2023-08-20T00:42:49;22.90;;;13.60;;
10335;SDS011;5213;53.548;9.930;2023-08-20T00:45:15;26.50;;;13.57;;
10335;SDS011;5213;53.548;9.930;2023-08-20T00:47:41;26.13;;;13.95;;
10335;SDS011;5213;53.548;9.930;2023-08-20T00:50:07;27.83;;;14.52;;
10335;SDS011;5213;53.548;9.930;2023-08-20T00:52:34;30.25;;;15.40;;
10335;SDS011;5213;53.548;9.930;2023-08-20T00:55:00;27.83;;;13.85;;
10335;SDS011;5213;53.548;9.930;2023-08-20T00:57:39;26.85;;;14.18;;
10335;SDS011;5213;53.548;9.930;2023-08-20T01:00:05;27.40;;;14.27;;
10335;SDS011;5213;53.548;9.930;2023-08-20T01:02:34;25.70;;;13.45;;
10335;SDS011;5213;53.548;9.930;2023-08-20T01:05:01;32.78;;;14.05;;
10335;SDS011;5213;53.548;9.930;2023-08-20T01:07:33;23.83;;;14.02;;
10335;SDS011;5213;53.548;9.930;2023-08-20T01:12:45;27.63;;;15.00;;
10335;SDS011;5213;53.548;9.930;2023-08-20T01:15:12;30.55;;;14.50;;
10335;SDS011;5213;53.548;9.930;2023-08-20T01:17:42;26.63;;;13.90;;
10335;SDS011;5213;53.548;9.930;2023-08-20T01:20:09;32.67;;;14.88;;
10335;SDS011;5213;53.548;9.930;2023-08-20T01:30:55;31.33;;;15.73;;
10335;SDS011;5213;53.548;9.930;2023-08-20T01:33:23;22.83;;;14.15;;
10335;SDS011;5213;53.548;9.930;2023-08-20T01:35:50;35.83;;;15.48;;
10335;SDS011;5213;53.548;9.930;2023-08-20T01:38:16;37.33;;;15.55;;
10335;SDS011;5213;53.548;9.930;2023-08-20T01:40:42;34.72;;;16.00;;
10335;SDS011;5213;53.548;9.930;2023-08-20T01:43:08;28.80;;;15.68;;
10335;SDS011;5213;53.548;9.930;2023-08-20T01:45:34;30.15;;;16.55;;
10335;SDS011;5213;53.548;9.930;2023-08-20T01:48:00;34.75;;;16.77;;
10335;SDS011;5213;53.548;9.930;2023-08-20T01:50:25;36.22;;;17.35;;
10335;SDS011;5213;53.548;9.930;2023-08-20T01:52:51;30.55;;;16.98;;
10335;SDS011;5213;53.548;9.930;2023-08-20T01:55:17;37.50;;;18.70;;
10335;SDS011;5213;53.548;9.930;2023-08-20T01:57:42;31.38;;;17.50;;
10335;SDS011;5213;53.548;9.930;2023-08-20T02:00:08;41.33;;;18.50;;
10335;SDS011;5213;53.548;9.930;2023-08-20T02:02:34;35.92;;;20.90;;
10335;SDS011;5213;53.548;9.930;2023-08-20T02:05:00;40.22;;;22.05;;
10335;SDS011;5213;53.548;9.930;2023-08-20T02:07:26;36.50;;;21.13;;
10335;SDS011;5213;53.548;9.930;2023-08-20T02:09:52;37.95;;;21.98;;
10335;SDS011;5213;53.548;9.930;2023-08-20T02:12:17;49.30;;;22.73;;
10335;SDS011;5213;53.548;9.930;2023-08-20T02:14:43;45.58;;;21.77;;
10335;SDS011;5213;53.548;9.930;2023-08-20T02:17:09;44.60;;;22.95;;
10335;SDS011;5213;53.548;9.930;2023-08-20T02:19:35;54.22;;;22.27;;
10335;SDS011;5213;53.548;9.930;2023-08-20T02:22:00;46.63;;;23.48;;
10335;SDS011;5213;53.548;9.930;2023-08-20T02:24:26;58.58;;;23.25;;
10335;SDS011;5213;53.548;9.930;2023-08-20T02:26:51;56.88;;;24.48;;
10335;SDS011;5213;53.548;9.930;2023-08-20T02:29:17;45.20;;;23.60;;
10335;SDS011;5213;53.548;9.930;2023-08-20T02:31:43;42.15;;;23.35;;
10335;SDS011;5213;53.548;9.930;2023-08-20T02:34:09;47.75;;;23.33;;
10335;SDS011;5213;53.548;9.930;2023-08-20T02:36:34;44.60;;;22.67;;
10335;SDS011;5213;53.548;9.930;2023-08-20T02:39:00;45.95;;;22.70;;
10335;SDS011;5213;53.548;9.930;2023-08-20T02:41:25;54.85;;;23.77;;
10335;SDS011;5213;53.548;9.930;2023-08-20T02:43:51;61.33;;;24.83;;
10335;SDS011;5213;53.548;9.930;2023-08-20T02:46:17;50.38;;;24.02;;
10335;SDS011;5213;53.548;9.930;2023-08-20T02:48:42;54.20;;;24.08;;
10335;SDS011;5213;53.548;9.930;2023-08-20T02:51:08;125.60;;;25.23;;
10335;SDS011;5213;53.548;9.930;2023-08-20T02:53:33;90.68;;;23.92;;
10335;SDS011;5213;53.548;9.930;2023-08-20T02:55:59;121.25;;;23.35;;
10335;SDS011;5213;53.548;9.930;2023-08-20T02:58:24;69.53;;;22.42;;
10335;SDS011;5213;53.548;9.930;2023-08-20T03:00:50;77.38;;;21.33;;
10335;SDS011;5213;53.548;9.930;2023-08-20T03:03:16;108.43;;;22.98;;
10335;SDS011;5213;53.548;9.930;2023-08-20T03:05:42;87.60;;;23.27;;
10335;SDS011;5213;53.548;9.930;2023-08-20T03:08:07;86.00;;;24.65;;
10335;SDS011;5213;53.548;9.930;2023-08-20T03:10:33;236.43;;;26.80;;
10335;SDS011;5213;53.548;9.930;2023-08-20T03:13:00;52.67;;;22.98;;
10335;SDS011;5213;53.548;9.930;2023-08-20T03:15:29;61.33;;;25.30;;
10335;SDS011;5213;53.548;9.930;2023-08-20T03:17:54;84.15;;;28.08;;
10335;SDS011;5213;53.548;9.930;2023-08-20T03:20:20;51.42;;;27.63;;
10335;SDS011;5213;53.548;9.930;2023-08-20T03:22:46;49.58;;;25.88;;
10335;SDS011;5213;53.548;9.930;2023-08-20T03:25:12;155.68;;;28.13;;
10335;SDS011;5213;53.548;9.930;2023-08-20T03:27:37;55.47;;;25.48;;
10335;SDS011;5213;53.548;9.930;2023-08-20T03:30:03;54.10;;;25.27;;
10335;SDS011;5213;53.548;9.930;2023-08-20T03:32:30;149.90;;;27.83;;
10335;SDS011;5213;53.548;9.930;2023-08-20T03:34:56;63.67;;;25.05;;
10335;SDS011;5213;53.548;9.930;2023-08-20T03:37:23;52.35;;;23.92;;
10335;SDS011;5213;53.548;9.930;2023-08-20T03:39:52;47.40;;;23.88;;
10335;SDS011;5213;53.548;9.930;2023-08-20T03:42:18;43.70;;;23.17;;
10335;SDS011;5213;53.548;9.930;2023-08-20T03:44:52;186.93;;;24.52;;
10335;SDS011;5213;53.548;9.930;2023-08-20T03:47:18;109.47;;;22.67;;
10335;SDS011;5213;53.548;9.930;2023-08-20T03:49:45;139.05;;;23.52;;
10335;SDS011;5213;53.548;9.930;2023-08-20T03:52:13;139.15;;;22.50;;
10335;SDS011;5213;53.548;9.930;2023-08-20T03:54:38;69.55;;;21.38;;
10335;SDS011;5213;53.548;9.930;2023-08-20T03:57:04;103.90;;;18.60;;
10335;SDS011;5213;53.548;9.930;2023-08-20T03:59:30;95.72;;;15.90;;
10335;SDS011;5213;53.548;9.930;2023-08-20T04:01:56;163.50;;;18.70;;
10335;SDS011;5213;53.548;9.930;2023-08-20T04:04:21;146.95;;;18.85;;
10335;SDS011;5213;53.548;9.930;2023-08-20T04:06:47;156.23;;;18.25;;
10335;SDS011;5213;53.548;9.930;2023-08-20T04:09:13;86.97;;;17.17;;
10335;SDS011;5213;53.548;9.930;2023-08-20T04:11:38;68.25;;;17.30;;
10335;SDS011;5213;53.548;9.930;2023-08-20T04:14:04;49.67;;;17.30;;
10335;SDS011;5213;53.548;9.930;2023-08-20T04:16:29;61.22;;;17.27;;
10335;SDS011;5213;53.548;9.930;2023-08-20T04:18:55;57.28;;;16.38;;
10335;SDS011;5213;53.548;9.930;2023-08-20T04:21:21;36.90;;;15.52;;
10335;SDS011;5213;53.548;9.930;2023-08-20T04:23:47;41.60;;;15.48;;
10335;SDS011;5213;53.548;9.930;2023-08-20T04:26:12;35.38;;;15.55;;
10335;SDS011;5213;53.548;9.930;2023-08-20T04:28:38;22.65;;;13.82;;
10335;SDS011;5213;53.548;9.930;2023-08-20T04:31:04;22.63;;;13.10;;
10335;SDS011;5213;53.548;9.930;2023-08-20T04:33:29;25.58;;;12.85;;
10335;SDS011;5213;53.548;9.930;2023-08-20T04:35:55;25.70;;;12.32;;
10335;SDS011;5213;53.548;9.930;2023-08-20T04:38:21;21.02;;;11.77;;
10335;SDS011;5213;53.548;9.930;2023-08-20T04:40:47;14.80;;;9.63;;
10335;SDS011;5213;53.548;9.930;2023-08-20T04:43:13;14.43;;;9.75;;
10335;SDS011;5213;53.548;9.930;2023-08-20T04:45:40;15.13;;;8.52;;
10335;SDS011;5213;53.548;9.930;2023-08-20T04:48:06;18.13;;;8.63;;
10335;SDS011;5213;53.548;9.930;2023-08-20T04:50:32;51.47;;;9.38;;
10335;SDS011;5213;53.548;9.930;2023-08-20T04:52:57;22.90;;;8.77;;
10335;SDS011;5213;53.548;9.930;2023-08-20T04:55:25;106.82;;;10.35;;
10335;SDS011;5213;53.548;9.930;2023-08-20T04:57:51;58.45;;;9.05;;
10335;SDS011;5213;53.548;9.930;2023-08-20T05:00:16;127.15;;;9.98;;
10335;SDS011;5213;53.548;9.930;2023-08-20T05:02:42;19.38;;;7.68;;
10335;SDS011;5213;53.548;9.930;2023-08-20T05:05:08;22.08;;;7.80;;
10335;SDS011;5213;53.548;9.930;2023-08-20T05:07:34;23.08;;;8.32;;
10335;SDS011;5213;53.548;9.930;2023-08-20T05:10:00;20.75;;;9.15;;
10335;SDS011;5213;53.548;9.930;2023-08-20T05:12:25;48.53;;;9.40;;
10335;SDS011;5213;53.548;9.930;2023-08-20T05:14:51;73.22;;;9.68;;
10335;SDS011;5213;53.548;9.930;2023-08-20T05:17:16;29.55;;;9.68;;
10335;SDS011;5213;53.548;9.930;2023-08-20T05:19:42;36.22;;;9.13;;
10335;SDS011;5213;53.548;9.930;2023-08-20T05:22:07;23.88;;;8.43;;
10335;SDS011;5213;53.548;9.930;2023-08-20T05:24:33;14.00;;;10.13;;
10335;SDS011;5213;53.548;9.930;2023-08-20T05:27:06;24.30;;;11.40;;
10335;SDS011;5213;53.548;9.930;2023-08-20T05:29:32;24.70;;;13.00;;
10335;SDS011;5213;53.548;9.930;2023-08-20T05:31:59;23.10;;;12.27;;
10335;SDS011;5213;53.548;9.930;2023-08-20T05:34:24;30.65;;;12.43;;
10335;SDS011;5213;53.548;9.930;2023-08-20T05:36:50;34.75;;;13.38;;
10335;SDS011;5213;53.548;9.930;2023-08-20T05:39:16;21.35;;;12.77;;
10335;SDS011;5213;53.548;9.930;2023-08-20T05:41:41;21.95;;;12.68;;
10335;SDS011;5213;53.548;9.930;2023-08-20T05:44:07;20.38;;;13.85;;
10335;SDS011;5213;53.548;9.930;2023-08-20T05:46:34;23.33;;;13.65;;
10335;SDS011;5213;53.548;9.930;2023-08-20T05:49:00;25.13;;;14.13;;
10335;SDS011;5213;53.548;9.930;2023-08-20T05:51:26;80.38;;;14.63;;
10335;SDS011;5213;53.548;9.930;2023-08-20T05:53:51;23.55;;;14.18;;
10335;SDS011;5213;53.548;9.930;2023-08-20T05:56:17;40.88;;;13.77;;
10335;SDS011;5213;53.548;9.930;2023-08-20T05:58:42;45.42;;;14.38;;
10335;SDS011;5213;53.548;9.930;2023-08-20T06:01:08;80.63;;;15.73;;
10335;SDS011;5213;53.548;9.930;2023-08-20T06:03:34;73.03;;;14.73;;
10335;SDS011;5213;53.548;9.930;2023-08-20T06:05:59;26.33;;;14.95;;
10335;SDS011;5213;53.548;9.930;2023-08-20T06:08:25;20.75;;;14.57;;
10335;SDS011;5213;53.548;9.930;2023-08-20T06:10:50;19.35;;;15.38;;
10335;SDS011;5213;53.548;9.930;2023-08-20T06:13:17;36.47;;;14.77;;
10335;SDS011;5213;53.548;9.930;2023-08-20T06:15:42;19.65;;;15.20;;
10335;SDS011;5213;53.548;9.930;2023-08-20T06:18:08;19.75;;;14.55;;
10335;SDS011;5213;53.548;9.930;2023-08-20T06:20:33;18.17;;;15.48;;
10335;SDS011;5213;53.548;9.930;2023-08-20T06:22:59;19.67;;;16.30;;
10335;SDS011;5213;53.548;9.930;2023-08-20T06:25:25;20.83;;;16.55;;
10335;SDS011;5213;53.548;9.930;2023-08-20T06:27:50;24.15;;;16.65;;
10335;SDS011;5213;53.548;9.930;2023-08-20T06:30:16;23.00;;;17.92;;
10335;SDS011;5213;53.548;9.930;2023-08-20T06:32:43;21.92;;;16.52;;
10335;SDS011;5213;53.548;9.930;2023-08-20T06:35:09;21.77;;;14.25;;
10335;SDS011;5213;53.548;9.930;2023-08-20T06:37:35;18.30;;;14.02;;
10335;SDS011;5213;53.548;9.930;2023-08-20T06:40:01;16.92;;;14.82;;
10335;SDS011;5213;53.548;9.930;2023-08-20T06:42:26;18.27;;;14.95;;
10335;SDS011;5213;53.548;9.930;2023-08-20T06:44:52;17.85;;;14.05;;
10335;SDS011;5213;53.548;9.930;2023-08-20T06:47:18;17.48;;;14.80;;
10335;SDS011;5213;53.548;9.930;2023-08-20T06:49:43;14.98;;;13.35;;
10335;SDS011;5213;53.548;9.930;2023-08-20T06:52:09;16.27;;;12.23;;
10335;SDS011;5213;53.548;9.930;2023-08-20T06:54:35;13.15;;;11.80;;
10335;SDS011;5213;53.548;9.930;2023-08-20T06:57:00;10.55;;;9.40;;
10335;SDS011;5213;53.548;9.930;2023-08-20T06:59:26;9.95;;;9.00;;
10335;SDS011;5213;53.548;9.930;2023-08-20T07:01:52;9.25;;;8.35;;
10335;SDS011;5213;53.548;9.930;2023-08-20T07:04:18;9.52;;;8.48;;
10335;SDS011;5213;53.548;9.930;2023-08-20T07:06:43;9.77;;;8.15;;
10335;SDS011;5213;53.548;9.930;2023-08-20T07:09:09;9.70;;;8.13;;
10335;SDS011;5213;53.548;9.930;2023-08-20T07:11:35;9.07;;;7.85;;
10335;SDS011;5213;53.548;9.930;2023-08-20T07:14:00;9.10;;;8.20;;
10335;SDS011;5213;53.548;9.930;2023-08-20T07:16:26;10.05;;;8.50;;
10335;SDS011;5213;53.548;9.930;2023-08-20T07:18:51;11.27;;;9.60;;
10335;SDS011;5213;53.548;9.930;2023-08-20T07:21:18;9.45;;;8.55;;
10335;SDS011;5213;53.548;9.930;2023-08-20T07:23:43;10.02;;;9.02;;
10335;SDS011;5213;53.548;9.930;2023-08-20T07:26:10;10.10;;;8.52;;
10335;SDS011;5213;53.548;9.930;2023-08-20T07:28:37;9.07;;;8.07;;
10335;SDS011;5213;53.548;9.930;2023-08-20T07:31:21;10.80;;;8.90;;
10335;SDS011;5213;53.548;9.930;2023-08-20T07:33:52;10.82;;;8.45;;
10335;SDS011;5213;53.548;9.930;2023-08-20T07:36:20;8.88;;;8.07;;
10335;SDS011;5213;53.548;9.930;2023-08-20T07:38:47;9.48;;;7.68;;
10335;SDS011;5213;53.548;9.930;2023-08-20T07:41:13;9.05;;;7.88;;
10335;SDS011;5213;53.548;9.930;2023-08-20T07:43:39;9.40;;;8.07;;
10335;SDS011;5213;53.548;9.930;2023-08-20T07:46:06;9.65;;;7.60;;
10335;SDS011;5213;53.548;9.930;2023-08-20T07:48:32;9.43;;;8.32;;
10335;SDS011;5213;53.548;9.930;2023-08-20T07:50:58;8.02;;;7.22;;
10335;SDS011;5213;53.548;9.930;2023-08-20T07:53:24;9.18;;;7.03;;
10335;SDS011;5213;53.548;9.930;2023-08-20T07:55:49;9.48;;;7.78;;
10335;SDS011;5213;53.548;9.930;2023-08-20T07:58:15;10.18;;;7.93;;
10335;SDS011;5213;53.548;9.930;2023-08-20T08:00:41;9.15;;;7.32;;
10335;SDS011;5213;53.548;9.930;2023-08-20T08:03:06;12.77;;;8.43;;
10335;SDS011;5213;53.548;9.930;2023-08-20T08:05:32;8.93;;;7.03;;
10335;SDS011;5213;53.548;9.930;2023-08-20T08:07:58;7.60;;;6.80;;
10335;SDS011;5213;53.548;9.930;2023-08-20T08:10:23;8.38;;;5.75;;
10335;SDS011;5213;53.548;9.930;2023-08-20T08:12:49;7.40;;;6.00;;
10335;SDS011;5213;53.548;9.930;2023-08-20T08:15:14;6.30;;;5.43;;
10335;SDS011;5213;53.548;9.930;2023-08-20T08:17:40;5.82;;;5.20;;
10335;SDS011;5213;53.548;9.930;2023-08-20T08:20:06;5.50;;;5.00;;
10335;SDS011;5213;53.548;9.930;2023-08-20T08:22:31;6.63;;;5.00;;
10335;SDS011;5213;53.548;9.930;2023-08-20T08:24:57;5.97;;;4.95;;
10335;SDS011;5213;53.548;9.930;2023-08-20T08:27:23;8.50;;;5.93;;
10335;SDS011;5213;53.548;9.930;2023-08-20T08:29:48;5.07;;;4.57;;
10335;SDS011;5213;53.548;9.930;2023-08-20T08:32:15;6.95;;;5.10;;
10335;SDS011;5213;53.548;9.930;2023-08-20T08:34:41;7.78;;;4.50;;
10335;SDS011;5213;53.548;9.930;2023-08-20T08:37:06;7.72;;;5.35;;
10335;SDS011;5213;53.548;9.930;2023-08-20T08:39:32;7.03;;;5.32;;
10335;SDS011;5213;53.548;9.930;2023-08-20T08:42:02;7.28;;;4.40;;
10335;SDS011;5213;53.548;9.930;2023-08-20T08:44:32;5.32;;;4.45;;
10335;SDS011;5213;53.548;9.930;2023-08-20T08:46:58;5.40;;;4.57;;
10335;SDS011;5213;53.548;9.930;2023-08-20T08:49:24;5.93;;;4.65;;
10335;SDS011;5213;53.548;9.930;2023-08-20T08:51:51;8.82;;;4.15;;
10335;SDS011;5213;53.548;9.930;2023-08-20T08:54:21;6.47;;;5.10;;
10335;SDS011;5213;53.548;9.930;2023-08-20T08:56:47;6.75;;;4.45;;
10335;SDS011;5213;53.548;9.930;2023-08-20T08:59:13;7.10;;;4.45;;
10335;SDS011;5213;53.548;9.930;2023-08-20T09:01:39;5.15;;;4.00;;
10335;SDS011;5213;53.548;9.930;2023-08-20T09:04:06;5.40;;;4.10;;
10335;SDS011;5213;53.548;9.930;2023-08-20T09:06:51;6.55;;;4.13;;
10335;SDS011;5213;53.548;9.930;2023-08-20T09:09:20;4.65;;;3.90;;
10335;SDS011;5213;53.548;9.930;2023-08-20T09:11:49;4.65;;;3.55;;
10335;SDS011;5213;53.548;9.930;2023-08-20T09:14:22;7.53;;;3.90;;
10335;SDS011;5213;53.548;9.930;2023-08-20T09:16:58;4.88;;;3.53;;
10335;SDS011;5213;53.548;9.930;2023-08-20T09:19:30;6.63;;;3.65;;
10335;SDS011;5213;53.548;9.930;2023-08-20T09:22:01;6.90;;;4.20;;
10335;SDS011;5213;53.548;9.930;2023-08-20T09:24:38;7.50;;;3.65;;
10335;SDS011;5213;53.548;9.930;2023-08-20T09:27:07;8.15;;;4.30;;
10335;SDS011;5213;53.548;9.930;2023-08-20T09:29:33;6.03;;;3.58;;
10335;SDS011;5213;53.548;9.930;2023-08-20T09:32:09;5.57;;;3.75;;
10335;SDS011;5213;53.548;9.930;2023-08-20T09:34:39;8.23;;;3.88;;
10335;SDS011;5213;53.548;9.930;2023-08-20T09:37:08;4.45;;;3.45;;
10335;SDS011;5213;53.548;9.930;2023-08-20T09:39:35;6.03;;;3.47;;
10335;SDS011;5213;53.548;9.930;2023-08-20T09:42:01;8.10;;;3.58;;
10335;SDS011;5213;53.548;9.930;2023-08-20T09:44:27;6.72;;;3.28;;
10335;SDS011;5213;53.548;9.930;2023-08-20T09:47:05;7.03;;;3.25;;
10335;SDS011;5213;53.548;9.930;2023-08-20T09:49:33;5.78;;;3.63;;
10335;SDS011;5213;53.548;9.930;2023-08-20T09:52:05;5.45;;;3.58;;
10335;SDS011;5213;53.548;9.930;2023-08-20T09:54:36;8.13;;;3.42;;
10335;SDS011;5213;53.548;9.930;2023-08-20T09:57:05;8.38;;;3.20;;
10335;SDS011;5213;53.548;9.930;2023-08-20T09:59:36;4.55;;;3.10;;
10335;SDS011;5213;53.548;9.930;2023-08-20T10:02:03;6.35;;;3.10;;
10335;SDS011;5213;53.548;9.930;2023-08-20T10:04:29;6.82;;;3.47;;
10335;SDS011;5213;53.548;9.930;2023-08-20T10:06:55;6.65;;;3.38;;
10335;SDS011;5213;53.548;9.930;2023-08-20T10:09:23;7.05;;;3.42;;
10335;SDS011;5213;53.548;9.930;2023-08-20T10:11:50;4.15;;;2.78;;
10335;SDS011;5213;53.548;9.930;2023-08-20T10:14:16;6.85;;;3.20;;
10335;SDS011;5213;53.548;9.930;2023-08-20T10:16:42;5.40;;;2.85;;
10335;SDS011;5213;53.548;9.930;2023-08-20T10:19:08;4.88;;;2.58;;
10335;SDS011;5213;53.548;9.930;2023-08-20T10:21:34;6.15;;;2.88;;
10335;SDS011;5213;53.548;9.930;2023-08-20T10:24:03;3.75;;;2.47;;
10335;SDS011;5213;53.548;9.930;2023-08-20T10:26:30;7.72;;;2.85;;
10335;SDS011;5213;53.548;9.930;2023-08-20T10:29:45;6.43;;;2.60;;
10335;SDS011;5213;53.548;9.930;2023-08-20T10:32:03;4.50;;;2.35;;
10335;SDS011;5213;53.548;9.930;2023-08-20T10:34:35;8.27;;;2.63;;
10335;SDS011;5213;53.548;9.930;2023-08-20T10:37:08;6.05;;;2.60;;
10335;SDS011;5213;53.548;9.930;2023-08-20T10:39:40;6.22;;;2.72;;
10335;SDS011;5213;53.548;9.930;2023-08-20T10:42:21;5.82;;;3.03;;
10335;SDS011;5213;53.548;9.930;2023-08-20T10:44:57;5.22;;;2.75;;
10335;SDS011;5213;53.548;9.930;2023-08-20T10:47:44;4.85;;;2.58;;
10335;SDS011;5213;53.548;9.930;2023-08-20T10:50:16;4.15;;;2.72;;
10335;SDS011;5213;53.548;9.930;2023-08-20T10:52:54;5.38;;;2.53;;
10335;SDS011;5213;53.548;9.930;2023-08-20T10:55:24;8.70;;;2.53;;
10335;SDS011;5213;53.548;9.930;2023-08-20T10:57:56;8.15;;;2.70;;
10335;SDS011;5213;53.548;9.930;2023-08-20T11:00:24;4.80;;;2.42;;
10335;SDS011;5213;53.548;9.930;2023-08-20T11:02:50;7.28;;;3.10;;
10335;SDS011;5213;53.548;9.930;2023-08-20T11:05:18;6.35;;;3.13;;
10335;SDS011;5213;53.548;9.930;2023-08-20T11:07:46;5.43;;;2.47;;
10335;SDS011;5213;53.548;9.930;2023-08-20T11:10:13;2.50;;;2.30;;
10335;SDS011;5213;53.548;9.930;2023-08-20T11:12:40;4.88;;;2.35;;
10335;SDS011;5213;53.548;9.930;2023-08-20T11:15:07;6.40;;;2.58;;
10335;SDS011;5213;53.548;9.930;2023-08-20T11:17:33;4.85;;;2.90;;
10335;SDS011;5213;53.548;9.930;2023-08-20T11:19:59;4.32;;;2.35;;
10335;SDS011;5213;53.548;9.930;2023-08-20T11:22:25;5.07;;;2.50;;
10335;SDS011;5213;53.548;9.930;2023-08-20T11:24:52;6.90;;;2.55;;
10335;SDS011;5213;53.548;9.930;2023-08-20T11:27:17;5.28;;;2.60;;
10335;SDS011;5213;53.548;9.930;2023-08-20T11:29:43;4.72;;;2.22;;
10335;SDS011;5213;53.548;9.930;2023-08-20T11:32:09;6.07;;;2.92;;
10335;SDS011;5213;53.548;9.930;2023-08-20T11:34:36;6.40;;;2.55;;
10335;SDS011;5213;53.548;9.930;2023-08-20T11:37:03;6.38;;;2.92;;
10335;SDS011;5213;53.548;9.930;2023-08-20T11:39:29;6.70;;;2.90;;
10335;SDS011;5213;53.548;9.930;2023-08-20T11:41:55;8.93;;;2.53;;
10335;SDS011;5213;53.548;9.930;2023-08-20T11:44:22;6.68;;;2.53;;
10335;SDS011;5213;53.548;9.930;2023-08-20T11:46:48;6.28;;;2.47;;
10335;SDS011;5213;53.548;9.930;2023-08-20T11:49:14;5.30;;;2.50;;
10335;SDS011;5213;53.548;9.930;2023-08-20T11:51:47;5.70;;;2.60;;
10335;SDS011;5213;53.548;9.930;2023-08-20T11:54:15;4.43;;;2.28;;
10335;SDS011;5213;53.548;9.930;2023-08-20T11:56:48;3.85;;;2.38;;
10335;SDS011;5213;53.548;9.930;2023-08-20T11:59:15;4.70;;;2.30;;
10335;SDS011;5213;53.548;9.930;2023-08-20T12:01:41;4.97;;;2.55;;
10335;SDS011;5213;53.548;9.930;2023-08-20T12:04:07;5.88;;;2.38;;
10335;SDS011;5213;53.548;9.930;2023-08-20T12:06:35;5.47;;;2.60;;
10335;SDS011;5213;53.548;9.930;2023-08-20T12:09:01;5.60;;;2.33;;
10335;SDS011;5213;53.548;9.930;2023-08-20T12:11:30;4.78;;;2.55;;
10335;SDS011;5213;53.548;9.930;2023-08-20T12:13:58;6.43;;;2.50;;
10335;SDS011;5213;53.548;9.930;2023-08-20T12:16:24;5.78;;;2.75;;
10335;SDS011;5213;53.548;9.930;2023-08-20T12:18:50;5.13;;;2.50;;
10335;SDS011;5213;53.548;9.930;2023-08-20T12:21:17;6.30;;;2.90;;
10335;SDS011;5213;53.548;9.930;2023-08-20T12:23:43;4.05;;;2.75;;
10335;SDS011;5213;53.548;9.930;2023-08-20T12:26:09;8.55;;;3.13;;
10335;SDS011;5213;53.548;9.930;2023-08-20T12:28:35;3.72;;;2.50;;
10335;SDS011;5213;53.548;9.930;2023-08-20T12:31:00;6.50;;;2.78;;
10335;SDS011;5213;53.548;9.930;2023-08-20T12:33:27;3.35;;;2.60;;
10335;SDS011;5213;53.548;9.930;2023-08-20T12:35:54;3.47;;;2.60;;
10335;SDS011;5213;53.548;9.930;2023-08-20T12:38:20;3.55;;;2.45;;
10335;SDS011;5213;53.548;9.930;2023-08-20T12:40:46;3.72;;;2.28;;
10335;SDS011;5213;53.548;9.930;2023-08-20T12:43:11;4.63;;;2.70;;
10335;SDS011;5213;53.548;9.930;2023-08-20T12:45:37;3.50;;;2.60;;
10335;SDS011;5213;53.548;9.930;2023-08-20T12:48:03;3.13;;;2.55;;
10335;SDS011;5213;53.548;9.930;2023-08-20T12:50:30;6.43;;;2.67;;
10335;SDS011;5213;53.548;9.930;2023-08-20T12:52:55;3.55;;;2.40;;
10335;SDS011;5213;53.548;9.930;2023-08-20T12:55:21;7.10;;;2.45;;
10335;SDS011;5213;53.548;9.930;2023-08-20T12:57:54;5.50;;;2.38;;
10335;SDS011;5213;53.548;9.930;2023-08-20T13:00:22;3.85;;;2.47;;
10335;SDS011;5213;53.548;9.930;2023-08-20T13:02:50;2.97;;;2.40;;
10335;SDS011;5213;53.548;9.930;2023-08-20T13:05:16;4.70;;;2.90;;
10335;SDS011;5213;53.548;9.930;2023-08-20T13:07:42;6.85;;;2.78;;
10335;SDS011;5213;53.548;9.930;2023-08-20T13:10:08;6.35;;;2.88;;
10335;SDS011;5213;53.548;9.930;2023-08-20T13:12:34;4.65;;;2.33;;
10335;SDS011;5213;53.548;9.930;2023-08-20T13:15:01;6.35;;;2.40;;
10335;SDS011;5213;53.548;9.930;2023-08-20T13:17:28;3.80;;;2.35;;
10335;SDS011;5213;53.548;9.930;2023-08-20T13:19:54;4.30;;;2.67;;
10335;SDS011;5213;53.548;9.930;2023-08-20T13:22:21;6.55;;;2.40;;
10335;SDS011;5213;53.548;9.930;2023-08-20T13:24:47;4.90;;;2.28;;
10335;SDS011;5213;53.548;9.930;2023-08-20T13:27:12;5.80;;;2.40;;
10335;SDS011;5213;53.548;9.930;2023-08-20T13:29:40;4.22;;;2.30;;
10335;SDS011;5213;53.548;9.930;2023-08-20T13:32:06;4.80;;;2.10;;
10335;SDS011;5213;53.548;9.930;2023-08-20T13:34:32;3.95;;;2.25;;
10335;SDS011;5213;53.548;9.930;2023-08-20T13:36:57;3.80;;;2.25;;
10335;SDS011;5213;53.548;9.930;2023-08-20T13:39:23;5.47;;;2.33;;
10335;SDS011;5213;53.548;9.930;2023-08-20T13:41:50;5.90;;;2.40;;
10335;SDS011;5213;53.548;9.930;2023-08-20T13:44:16;2.30;;;2.10;;
10335;SDS011;5213;53.548;9.930;2023-08-20T13:46:41;4.32;;;2.25;;
10335;SDS011;5213;53.548;9.930;2023-08-20T13:49:07;7.75;;;2.17;;
10335;SDS011;5213;53.548;9.930;2023-08-20T13:51:33;3.20;;;2.08;;
10335;SDS011;5213;53.548;9.930;2023-08-20T13:53:58;3.20;;;2.00;;
10335;SDS011;5213;53.548;9.930;2023-08-20T13:56:24;4.60;;;2.90;;
10335;SDS011;5213;53.548;9.930;2023-08-20T13:58:50;5.75;;;2.35;;
10335;SDS011;5213;53.548;9.930;2023-08-20T14:01:17;5.63;;;2.03;;
10335;SDS011;5213;53.548;9.930;2023-08-20T14:03:42;4.93;;;2.63;;
10335;SDS011;5213;53.548;9.930;2023-08-20T14:06:08;3.70;;;2.10;;
10335;SDS011;5213;53.548;9.930;2023-08-20T14:08:34;4.70;;;2.35;;
10335;SDS011;5213;53.548;9.930;2023-08-20T14:10:59;4.55;;;2.03;;
10335;SDS011;5213;53.548;9.930;2023-08-20T14:13:25;2.55;;;2.10;;
10335;SDS011;5213;53.548;9.930;2023-08-20T14:15:50;3.60;;;2.00;;
10335;SDS011;5213;53.548;9.930;2023-08-20T14:18:16;3.92;;;2.20;;
10335;SDS011;5213;53.548;9.930;2023-08-20T14:20:42;3.95;;;2.38;;
10335;SDS011;5213;53.548;9.930;2023-08-20T14:23:07;2.85;;;1.90;;
10335;SDS011;5213;53.548;9.930;2023-08-20T14:25:33;4.15;;;2.10;;
10335;SDS011;5213;53.548;9.930;2023-08-20T14:27:59;4.53;;;2.35;;
10335;SDS011;5213;53.548;9.930;2023-08-20T14:30:25;2.72;;;2.00;;
10335;SDS011;5213;53.548;9.930;2023-08-20T14:32:52;4.07;;;2.40;;
10335;SDS011;5213;53.548;9.930;2023-08-20T14:35:19;3.53;;;2.20;;
10335;SDS011;5213;53.548;9.930;2023-08-20T14:37:45;3.70;;;2.10;;
10335;SDS011;5213;53.548;9.930;2023-08-20T14:40:11;3.33;;;2.08;;
10335;SDS011;5213;53.548;9.930;2023-08-20T14:42:37;3.25;;;2.15;;
10335;SDS011;5213;53.548;9.930;2023-08-20T14:45:03;4.80;;;2.20;;
10335;SDS011;5213;53.548;9.930;2023-08-20T14:47:29;3.50;;;2.03;;
10335;SDS011;5213;53.548;9.930;2023-08-20T14:49:56;3.40;;;1.88;;
10335;SDS011;5213;53.548;9.930;2023-08-20T14:52:22;4.43;;;2.10;;
10335;SDS011;5213;53.548;9.930;2023-08-20T14:54:48;4.63;;;2.00;;
10335;SDS011;5213;53.548;9.930;2023-08-20T14:57:14;3.10;;;2.00;;